sensor_id;sensor_type;location;lat;lon;timestamp;P1;durP1;ratioP1;P2;durP2;ratioP2
2299;SDS011;1158;48.750;9.078;2024-03-08T00:00:26;43.50;;;21.60;;
2299;SDS011;1158;48.750;9.078;2024-03-08T00:02:53;41.00;;;20.70;;
2299;SDS011;1158;48.750;9.078;2024-03-08T00:05:20;41.33;;;22.17;;
2299;SDS011;1158;48.750;9.078;2024-03-08T00:07:46;41.63;;;20.70;;
2299;SDS011;1158;48.750;9.078;2024-03-08T00:10:14;42.03;;;21.27;;
2299;SDS011;1158;48.750;9.078;2024-03-08T00:12:42;41.33;;;21.73;;
2299;SDS011;1158;48.750;9.078;2024-03-08T00:15:11;44.73;;;22.40;;
2299;SDS011;1158;48.750;9.078;2024-03-08T00:17:39;48.00;;;22.20;;
2299;SDS011;1158;48.750;9.078;2024-03-08T00:20:06;37.67;;;21.23;;
2299;SDS011;1158;48.750;9.078;2024-03-08T00:22:34;45.57;;;21.17;;
2299;SDS011;1158;48.750;9.078;2024-03-08T00:25:01;41.77;;;20.93;;
2299;SDS011;1158;48.750;9.078;2024-03-08T00:27:30;41.97;;;21.00;;
2299;SDS011;1158;48.750;9.078;2024-03-08T00:29:56;37.97;;;18.97;;
2299;SDS011;1158;48.750;9.078;2024-03-08T00:32:23;41.03;;;21.03;;
2299;SDS011;1158;48.750;9.078;2024-03-08T00:34:50;40.83;;;20.37;;
2299;SDS011;1158;48.750;9.078;2024-03-08T00:37:17;43.07;;;22.47;;
2299;SDS011;1158;48.750;9.078;2024-03-08T00:39:44;40.40;;;20.77;;
2299;SDS011;1158;48.750;9.078;2024-03-08T00:42:11;41.43;;;19.80;;
2299;SDS011;1158;48.750;9.078;2024-03-08T00:44:40;48.00;;;22.60;;
2299;SDS011;1158;48.750;9.078;2024-03-08T00:47:06;44.27;;;21.03;;
2299;SDS011;1158;48.750;9.078;2024-03-08T00:49:33;38.73;;;21.37;;
2299;SDS011;1158;48.750;9.078;2024-03-08T00:52:01;45.43;;;21.63;;
2299;SDS011;1158;48.750;9.078;2024-03-08T00:54:28;38.73;;;21.53;;
2299;SDS011;1158;48.750;9.078;2024-03-08T00:56:55;43.80;;;20.93;;
2299;SDS011;1158;48.750;9.078;2024-03-08T00:59:22;39.90;;;20.60;;
2299;SDS011;1158;48.750;9.078;2024-03-08T01:01:50;42.47;;;21.00;;
2299;SDS011;1158;48.750;9.078;2024-03-08T01:04:16;39.40;;;20.73;;
2299;SDS011;1158;48.750;9.078;2024-03-08T01:06:44;35.53;;;19.43;;
2299;SDS011;1158;48.750;9.078;2024-03-08T01:09:12;41.23;;;19.30;;
2299;SDS011;1158;48.750;9.078;2024-03-08T01:11:39;39.63;;;19.80;;
2299;SDS011;1158;48.750;9.078;2024-03-08T01:14:07;42.67;;;21.20;;
2299;SDS011;1158;48.750;9.078;2024-03-08T01:16:33;43.23;;;21.03;;
2299;SDS011;1158;48.750;9.078;2024-03-08T01:19:01;39.97;;;21.63;;
2299;SDS011;1158;48.750;9.078;2024-03-08T01:21:29;40.87;;;20.83;;
2299;SDS011;1158;48.750;9.078;2024-03-08T01:23:55;43.40;;;21.73;;
2299;SDS011;1158;48.750;9.078;2024-03-08T01:26:22;40.63;;;21.17;;
2299;SDS011;1158;48.750;9.078;2024-03-08T01:28:49;41.63;;;21.63;;
2299;SDS011;1158;48.750;9.078;2024-03-08T01:31:15;42.37;;;21.27;;
2299;SDS011;1158;48.750;9.078;2024-03-08T01:33:42;43.40;;;21.30;;
2299;SDS011;1158;48.750;9.078;2024-03-08T01:36:11;44.03;;;21.27;;
2299;SDS011;1158;48.750;9.078;2024-03-08T01:38:40;44.77;;;22.13;;
2299;SDS011;1158;48.750;9.078;2024-03-08T01:41:07;46.50;;;20.70;;
2299;SDS011;1158;48.750;9.078;2024-03-08T01:43:34;38.93;;;20.13;;
2299;SDS011;1158;48.750;9.078;2024-03-08T01:46:00;44.63;;;21.40;;
2299;SDS011;1158;48.750;9.078;2024-03-08T01:48:28;38.90;;;20.70;;
2299;SDS011;1158;48.750;9.078;2024-03-08T01:50:55;52.00;;;23.40;;
2299;SDS011;1158;48.750;9.078;2024-03-08T01:53:24;43.37;;;21.47;;
2299;SDS011;1158;48.750;9.078;2024-03-08T01:55:52;50.83;;;22.67;;
2299;SDS011;1158;48.750;9.078;2024-03-08T01:58:22;41.53;;;21.60;;
2299;SDS011;1158;48.750;9.078;2024-03-08T02:00:49;45.13;;;23.07;;
2299;SDS011;1158;48.750;9.078;2024-03-08T02:03:16;42.77;;;22.23;;
2299;SDS011;1158;48.750;9.078;2024-03-08T02:05:43;40.77;;;20.63;;
2299;SDS011;1158;48.750;9.078;2024-03-08T02:08:10;42.00;;;21.77;;
2299;SDS011;1158;48.750;9.078;2024-03-08T02:10:40;41.93;;;20.90;;
2299;SDS011;1158;48.750;9.078;2024-03-08T02:13:07;43.20;;;20.93;;
2299;SDS011;1158;48.750;9.078;2024-03-08T02:15:51;39.10;;;20.10;;
2299;SDS011;1158;48.750;9.078;2024-03-08T02:18:18;40.57;;;20.87;;
2299;SDS011;1158;48.750;9.078;2024-03-08T02:20:47;41.27;;;19.87;;
2299;SDS011;1158;48.750;9.078;2024-03-08T02:23:13;40.57;;;19.83;;
2299;SDS011;1158;48.750;9.078;2024-03-08T02:25:40;37.13;;;19.20;;
2299;SDS011;1158;48.750;9.078;2024-03-08T02:28:08;45.07;;;21.30;;
2299;SDS011;1158;48.750;9.078;2024-03-08T02:30:36;45.53;;;21.03;;
2299;SDS011;1158;48.750;9.078;2024-03-08T02:33:03;45.07;;;19.90;;
2299;SDS011;1158;48.750;9.078;2024-03-08T02:35:30;44.27;;;19.53;;
2299;SDS011;1158;48.750;9.078;2024-03-08T02:37:58;41.50;;;18.60;;
2299;SDS011;1158;48.750;9.078;2024-03-08T02:40:25;41.23;;;20.40;;
2299;SDS011;1158;48.750;9.078;2024-03-08T02:42:52;39.30;;;20.30;;
2299;SDS011;1158;48.750;9.078;2024-03-08T02:45:18;36.17;;;19.10;;
2299;SDS011;1158;48.750;9.078;2024-03-08T02:47:45;40.03;;;20.43;;
2299;SDS011;1158;48.750;9.078;2024-03-08T02:50:14;43.57;;;20.77;;
2299;SDS011;1158;48.750;9.078;2024-03-08T02:52:41;42.93;;;20.10;;
2299;SDS011;1158;48.750;9.078;2024-03-08T02:55:10;37.90;;;18.50;;
2299;SDS011;1158;48.750;9.078;2024-03-08T02:57:40;46.97;;;20.03;;
2299;SDS011;1158;48.750;9.078;2024-03-08T03:00:07;36.53;;;18.43;;
2299;SDS011;1158;48.750;9.078;2024-03-08T03:02:35;44.33;;;20.33;;
2299;SDS011;1158;48.750;9.078;2024-03-08T03:05:02;37.90;;;17.23;;
2299;SDS011;1158;48.750;9.078;2024-03-08T03:07:31;37.17;;;19.33;;
2299;SDS011;1158;48.750;9.078;2024-03-08T03:09:58;41.13;;;20.27;;
2299;SDS011;1158;48.750;9.078;2024-03-08T03:12:26;40.40;;;18.90;;
2299;SDS011;1158;48.750;9.078;2024-03-08T03:14:53;46.53;;;20.47;;
2299;SDS011;1158;48.750;9.078;2024-03-08T03:17:21;36.83;;;20.03;;
2299;SDS011;1158;48.750;9.078;2024-03-08T03:19:48;43.73;;;19.53;;
2299;SDS011;1158;48.750;9.078;2024-03-08T03:22:14;32.83;;;17.20;;
2299;SDS011;1158;48.750;9.078;2024-03-08T03:24:41;36.57;;;18.13;;
2299;SDS011;1158;48.750;9.078;2024-03-08T03:27:08;36.30;;;19.20;;
2299;SDS011;1158;48.750;9.078;2024-03-08T03:29:38;34.03;;;18.50;;
2299;SDS011;1158;48.750;9.078;2024-03-08T03:32:07;32.60;;;17.63;;
2299;SDS011;1158;48.750;9.078;2024-03-08T03:34:33;36.83;;;18.47;;
2299;SDS011;1158;48.750;9.078;2024-03-08T03:37:01;38.43;;;19.03;;
2299;SDS011;1158;48.750;9.078;2024-03-08T03:39:28;39.77;;;18.77;;
2299;SDS011;1158;48.750;9.078;2024-03-08T03:41:57;37.83;;;18.90;;
2299;SDS011;1158;48.750;9.078;2024-03-08T03:44:24;40.93;;;19.83;;
2299;SDS011;1158;48.750;9.078;2024-03-08T03:46:54;43.17;;;20.40;;
2299;SDS011;1158;48.750;9.078;2024-03-08T03:49:21;41.23;;;19.30;;
2299;SDS011;1158;48.750;9.078;2024-03-08T03:51:48;42.13;;;19.37;;
2299;SDS011;1158;48.750;9.078;2024-03-08T03:54:15;37.33;;;20.10;;
2299;SDS011;1158;48.750;9.078;2024-03-08T03:56:42;45.67;;;20.00;;
2299;SDS011;1158;48.750;9.078;2024-03-08T03:59:10;34.33;;;18.30;;
2299;SDS011;1158;48.750;9.078;2024-03-08T04:01:41;41.23;;;18.70;;
2299;SDS011;1158;48.750;9.078;2024-03-08T04:04:09;39.00;;;19.33;;
2299;SDS011;1158;48.750;9.078;2024-03-08T04:06:38;40.17;;;20.40;;
2299;SDS011;1158;48.750;9.078;2024-03-08T04:09:05;37.07;;;17.70;;
2299;SDS011;1158;48.750;9.078;2024-03-08T04:11:31;41.70;;;18.87;;
2299;SDS011;1158;48.750;9.078;2024-03-08T04:13:58;43.30;;;20.07;;
2299;SDS011;1158;48.750;9.078;2024-03-08T04:16:25;35.00;;;18.27;;
2299;SDS011;1158;48.750;9.078;2024-03-08T04:18:51;43.57;;;19.33;;
2299;SDS011;1158;48.750;9.078;2024-03-08T04:21:19;41.60;;;19.57;;
2299;SDS011;1158;48.750;9.078;2024-03-08T04:23:46;42.40;;;20.13;;
2299;SDS011;1158;48.750;9.078;2024-03-08T04:26:13;38.60;;;19.57;;
2299;SDS011;1158;48.750;9.078;2024-03-08T04:28:40;44.70;;;20.53;;
2299;SDS011;1158;48.750;9.078;2024-03-08T04:31:06;36.53;;;18.37;;
2299;SDS011;1158;48.750;9.078;2024-03-08T04:33:33;45.27;;;20.90;;
2299;SDS011;1158;48.750;9.078;2024-03-08T04:36:00;43.17;;;20.27;;
2299;SDS011;1158;48.750;9.078;2024-03-08T04:38:30;42.57;;;20.30;;
2299;SDS011;1158;48.750;9.078;2024-03-08T04:40:57;44.20;;;21.17;;
2299;SDS011;1158;48.750;9.078;2024-03-08T04:43:24;47.80;;;21.77;;
2299;SDS011;1158;48.750;9.078;2024-03-08T04:45:51;46.37;;;21.60;;
2299;SDS011;1158;48.750;9.078;2024-03-08T04:48:18;46.37;;;20.77;;
2299;SDS011;1158;48.750;9.078;2024-03-08T04:50:45;38.97;;;21.20;;
2299;SDS011;1158;48.750;9.078;2024-03-08T04:53:12;42.43;;;20.73;;
2299;SDS011;1158;48.750;9.078;2024-03-08T04:55:40;46.30;;;21.63;;
2299;SDS011;1158;48.750;9.078;2024-03-08T04:58:07;41.60;;;21.73;;
2299;SDS011;1158;48.750;9.078;2024-03-08T05:00:33;47.00;;;22.60;;
2299;SDS011;1158;48.750;9.078;2024-03-08T05:03:00;48.87;;;22.70;;
2299;SDS011;1158;48.750;9.078;2024-03-08T05:05:27;51.40;;;22.70;;
2299;SDS011;1158;48.750;9.078;2024-03-08T05:07:55;48.23;;;22.87;;
2299;SDS011;1158;48.750;9.078;2024-03-08T05:10:22;49.70;;;23.87;;
2299;SDS011;1158;48.750;9.078;2024-03-08T05:12:50;51.53;;;25.90;;
2299;SDS011;1158;48.750;9.078;2024-03-08T05:15:17;48.23;;;22.47;;
2299;SDS011;1158;48.750;9.078;2024-03-08T05:17:45;47.67;;;23.10;;
2299;SDS011;1158;48.750;9.078;2024-03-08T05:20:12;43.80;;;22.33;;
2299;SDS011;1158;48.750;9.078;2024-03-08T05:22:38;46.83;;;22.57;;
2299;SDS011;1158;48.750;9.078;2024-03-08T05:25:06;47.80;;;23.57;;
2299;SDS011;1158;48.750;9.078;2024-03-08T05:27:33;42.10;;;20.77;;
2299;SDS011;1158;48.750;9.078;2024-03-08T05:30:02;50.03;;;23.13;;
2299;SDS011;1158;48.750;9.078;2024-03-08T05:32:30;41.77;;;21.33;;
2299;SDS011;1158;48.750;9.078;2024-03-08T05:34:57;47.03;;;22.10;;
2299;SDS011;1158;48.750;9.078;2024-03-08T05:37:24;44.20;;;21.57;;
2299;SDS011;1158;48.750;9.078;2024-03-08T05:39:51;48.07;;;23.27;;
2299;SDS011;1158;48.750;9.078;2024-03-08T05:42:18;56.13;;;22.67;;
2299;SDS011;1158;48.750;9.078;2024-03-08T05:44:45;47.87;;;23.43;;
2299;SDS011;1158;48.750;9.078;2024-03-08T05:47:13;48.30;;;22.70;;
2299;SDS011;1158;48.750;9.078;2024-03-08T05:49:41;45.20;;;22.30;;
2299;SDS011;1158;48.750;9.078;2024-03-08T05:52:09;44.90;;;22.87;;
2299;SDS011;1158;48.750;9.078;2024-03-08T05:54:36;42.00;;;20.07;;
2299;SDS011;1158;48.750;9.078;2024-03-08T05:57:02;52.47;;;21.57;;
2299;SDS011;1158;48.750;9.078;2024-03-08T05:59:29;44.43;;;20.87;;
2299;SDS011;1158;48.750;9.078;2024-03-08T06:01:56;53.30;;;22.80;;
2299;SDS011;1158;48.750;9.078;2024-03-08T06:04:24;45.77;;;23.63;;
2299;SDS011;1158;48.750;9.078;2024-03-08T06:06:52;46.17;;;21.97;;
2299;SDS011;1158;48.750;9.078;2024-03-08T06:09:20;49.23;;;22.70;;
2299;SDS011;1158;48.750;9.078;2024-03-08T06:11:49;45.87;;;22.13;;
2299;SDS011;1158;48.750;9.078;2024-03-08T06:14:16;38.50;;;19.00;;
2299;SDS011;1158;48.750;9.078;2024-03-08T06:16:43;47.63;;;22.57;;
2299;SDS011;1158;48.750;9.078;2024-03-08T06:19:10;50.37;;;22.27;;
2299;SDS011;1158;48.750;9.078;2024-03-08T06:21:38;54.17;;;22.00;;
2299;SDS011;1158;48.750;9.078;2024-03-08T06:24:06;41.27;;;19.93;;
2299;SDS011;1158;48.750;9.078;2024-03-08T06:26:33;50.37;;;22.27;;
2299;SDS011;1158;48.750;9.078;2024-03-08T06:29:00;45.23;;;21.97;;
2299;SDS011;1158;48.750;9.078;2024-03-08T06:31:26;44.63;;;22.40;;
2299;SDS011;1158;48.750;9.078;2024-03-08T06:33:53;47.33;;;22.90;;
2299;SDS011;1158;48.750;9.078;2024-03-08T06:36:20;45.27;;;23.07;;
2299;SDS011;1158;48.750;9.078;2024-03-08T06:38:48;50.30;;;22.73;;
2299;SDS011;1158;48.750;9.078;2024-03-08T06:41:16;44.53;;;23.10;;
2299;SDS011;1158;48.750;9.078;2024-03-08T06:43:43;48.33;;;21.47;;
2299;SDS011;1158;48.750;9.078;2024-03-08T06:46:10;49.80;;;21.60;;
2299;SDS011;1158;48.750;9.078;2024-03-08T06:48:37;45.93;;;22.33;;
2299;SDS011;1158;48.750;9.078;2024-03-08T06:51:04;42.17;;;21.27;;
2299;SDS011;1158;48.750;9.078;2024-03-08T06:53:31;48.00;;;22.80;;
2299;SDS011;1158;48.750;9.078;2024-03-08T06:56:01;50.73;;;23.40;;
2299;SDS011;1158;48.750;9.078;2024-03-08T06:58:28;42.80;;;20.10;;
2299;SDS011;1158;48.750;9.078;2024-03-08T07:00:54;42.03;;;21.90;;
2299;SDS011;1158;48.750;9.078;2024-03-08T07:03:23;45.50;;;21.50;;
2299;SDS011;1158;48.750;9.078;2024-03-08T07:05:51;42.90;;;21.00;;
2299;SDS011;1158;48.750;9.078;2024-03-08T07:08:18;45.77;;;23.00;;
2299;SDS011;1158;48.750;9.078;2024-03-08T07:10:47;43.53;;;21.73;;
2299;SDS011;1158;48.750;9.078;2024-03-08T07:13:15;43.90;;;21.50;;
2299;SDS011;1158;48.750;9.078;2024-03-08T07:15:43;47.03;;;22.90;;
2299;SDS011;1158;48.750;9.078;2024-03-08T07:18:09;46.73;;;22.70;;
2299;SDS011;1158;48.750;9.078;2024-03-08T07:20:39;47.50;;;21.87;;
2299;SDS011;1158;48.750;9.078;2024-03-08T07:23:06;41.70;;;21.13;;
2299;SDS011;1158;48.750;9.078;2024-03-08T07:25:33;43.53;;;21.73;;
2299;SDS011;1158;48.750;9.078;2024-03-08T07:28:00;43.67;;;21.40;;
2299;SDS011;1158;48.750;9.078;2024-03-08T07:30:28;41.07;;;20.17;;
2299;SDS011;1158;48.750;9.078;2024-03-08T07:33:12;42.77;;;20.20;;
2299;SDS011;1158;48.750;9.078;2024-03-08T07:35:39;39.73;;;19.90;;
2299;SDS011;1158;48.750;9.078;2024-03-08T07:38:07;48.07;;;20.20;;
2299;SDS011;1158;48.750;9.078;2024-03-08T07:40:35;38.73;;;20.90;;
2299;SDS011;1158;48.750;9.078;2024-03-08T07:43:03;45.73;;;21.07;;
2299;SDS011;1158;48.750;9.078;2024-03-08T07:45:31;40.70;;;20.70;;
2299;SDS011;1158;48.750;9.078;2024-03-08T07:47:58;40.17;;;20.40;;
2299;SDS011;1158;48.750;9.078;2024-03-08T07:50:25;37.70;;;19.70;;
2299;SDS011;1158;48.750;9.078;2024-03-08T07:52:51;37.33;;;19.03;;
2299;SDS011;1158;48.750;9.078;2024-03-08T07:55:18;39.60;;;20.20;;
2299;SDS011;1158;48.750;9.078;2024-03-08T07:57:45;36.77;;;19.83;;
2299;SDS011;1158;48.750;9.078;2024-03-08T08:00:13;40.20;;;20.83;;
2299;SDS011;1158;48.750;9.078;2024-03-08T08:02:44;33.83;;;19.63;;
2299;SDS011;1158;48.750;9.078;2024-03-08T08:05:11;34.07;;;18.60;;
2299;SDS011;1158;48.750;9.078;2024-03-08T08:07:38;39.80;;;18.57;;
2299;SDS011;1158;48.750;9.078;2024-03-08T08:10:06;32.90;;;18.47;;
2299;SDS011;1158;48.750;9.078;2024-03-08T08:12:40;34.50;;;19.10;;
2299;SDS011;1158;48.750;9.078;2024-03-08T08:15:08;36.80;;;18.40;;
2299;SDS011;1158;48.750;9.078;2024-03-08T08:17:34;34.07;;;18.80;;
2299;SDS011;1158;48.750;9.078;2024-03-08T08:20:03;34.00;;;18.70;;
2299;SDS011;1158;48.750;9.078;2024-03-08T08:22:30;37.97;;;19.73;;
2299;SDS011;1158;48.750;9.078;2024-03-08T08:24:57;36.10;;;18.60;;
2299;SDS011;1158;48.750;9.078;2024-03-08T08:27:24;32.93;;;16.63;;
2299;SDS011;1158;48.750;9.078;2024-03-08T08:29:51;35.40;;;17.33;;
2299;SDS011;1158;48.750;9.078;2024-03-08T08:32:17;31.20;;;17.90;;
2299;SDS011;1158;48.750;9.078;2024-03-08T08:34:45;33.70;;;17.77;;
2299;SDS011;1158;48.750;9.078;2024-03-08T08:37:13;27.97;;;16.87;;
2299;SDS011;1158;48.750;9.078;2024-03-08T08:39:41;30.10;;;16.53;;
2299;SDS011;1158;48.750;9.078;2024-03-08T08:42:08;30.60;;;15.70;;
2299;SDS011;1158;48.750;9.078;2024-03-08T08:44:36;30.17;;;16.47;;
2299;SDS011;1158;48.750;9.078;2024-03-08T08:47:03;32.77;;;17.07;;
2299;SDS011;1158;48.750;9.078;2024-03-08T08:49:29;30.47;;;16.23;;
2299;SDS011;1158;48.750;9.078;2024-03-08T08:51:56;35.00;;;17.63;;
2299;SDS011;1158;48.750;9.078;2024-03-08T08:54:25;27.83;;;15.67;;
2299;SDS011;1158;48.750;9.078;2024-03-08T08:56:52;32.00;;;17.23;;
2299;SDS011;1158;48.750;9.078;2024-03-08T08:59:19;30.67;;;17.77;;
2299;SDS011;1158;48.750;9.078;2024-03-08T09:01:48;29.63;;;16.50;;
2299;SDS011;1158;48.750;9.078;2024-03-08T09:04:15;32.50;;;17.37;;
2299;SDS011;1158;48.750;9.078;2024-03-08T09:06:42;30.50;;;18.03;;
2299;SDS011;1158;48.750;9.078;2024-03-08T09:09:09;32.53;;;17.70;;
2299;SDS011;1158;48.750;9.078;2024-03-08T09:11:39;31.17;;;18.90;;
2299;SDS011;1158;48.750;9.078;2024-03-08T09:14:07;29.90;;;16.73;;
2299;SDS011;1158;48.750;9.078;2024-03-08T09:16:34;32.93;;;18.03;;
2299;SDS011;1158;48.750;9.078;2024-03-08T09:19:01;39.30;;;17.47;;
2299;SDS011;1158;48.750;9.078;2024-03-08T09:21:28;31.07;;;16.70;;
2299;SDS011;1158;48.750;9.078;2024-03-08T09:23:56;33.27;;;16.60;;
2299;SDS011;1158;48.750;9.078;2024-03-08T09:26:23;29.77;;;16.20;;
2299;SDS011;1158;48.750;9.078;2024-03-08T09:28:51;29.23;;;16.80;;
2299;SDS011;1158;48.750;9.078;2024-03-08T09:31:19;30.63;;;17.10;;
2299;SDS011;1158;48.750;9.078;2024-03-08T09:33:46;35.87;;;19.20;;
2299;SDS011;1158;48.750;9.078;2024-03-08T09:36:13;30.63;;;16.80;;
2299;SDS011;1158;48.750;9.078;2024-03-08T09:38:40;27.90;;;16.23;;
2299;SDS011;1158;48.750;9.078;2024-03-08T09:41:06;30.50;;;16.33;;
2299;SDS011;1158;48.750;9.078;2024-03-08T09:43:35;32.80;;;18.20;;
2299;SDS011;1158;48.750;9.078;2024-03-08T09:46:04;30.30;;;16.57;;
2299;SDS011;1158;48.750;9.078;2024-03-08T09:48:32;35.40;;;17.90;;
2299;SDS011;1158;48.750;9.078;2024-03-08T09:50:59;28.37;;;16.27;;
2299;SDS011;1158;48.750;9.078;2024-03-08T09:53:26;30.17;;;16.67;;
2299;SDS011;1158;48.750;9.078;2024-03-08T09:55:53;29.53;;;16.20;;
2299;SDS011;1158;48.750;9.078;2024-03-08T09:58:19;28.23;;;16.47;;
2299;SDS011;1158;48.750;9.078;2024-03-08T10:01:01;29.60;;;16.90;;
2299;SDS011;1158;48.750;9.078;2024-03-08T10:03:31;31.13;;;17.47;;
2299;SDS011;1158;48.750;9.078;2024-03-08T10:05:58;33.37;;;18.47;;
2299;SDS011;1158;48.750;9.078;2024-03-08T10:08:26;25.83;;;14.83;;
2299;SDS011;1158;48.750;9.078;2024-03-08T10:10:54;31.80;;;16.90;;
2299;SDS011;1158;48.750;9.078;2024-03-08T10:13:23;27.10;;;14.93;;
2299;SDS011;1158;48.750;9.078;2024-03-08T10:15:51;29.23;;;17.20;;
2299;SDS011;1158;48.750;9.078;2024-03-08T10:18:20;24.50;;;15.33;;
2299;SDS011;1158;48.750;9.078;2024-03-08T10:20:48;28.13;;;16.83;;
2299;SDS011;1158;48.750;9.078;2024-03-08T10:23:29;27.20;;;16.20;;
2299;SDS011;1158;48.750;9.078;2024-03-08T10:25:56;28.90;;;15.47;;
2299;SDS011;1158;48.750;9.078;2024-03-08T10:28:23;27.93;;;15.97;;
2299;SDS011;1158;48.750;9.078;2024-03-08T10:30:50;32.40;;;18.10;;
2299;SDS011;1158;48.750;9.078;2024-03-08T10:33:17;30.97;;;17.10;;
2299;SDS011;1158;48.750;9.078;2024-03-08T10:35:45;32.00;;;16.93;;
2299;SDS011;1158;48.750;9.078;2024-03-08T10:38:12;27.67;;;16.60;;
2299;SDS011;1158;48.750;9.078;2024-03-08T10:40:45;31.13;;;15.63;;
2299;SDS011;1158;48.750;9.078;2024-03-08T10:43:18;32.47;;;15.90;;
2299;SDS011;1158;48.750;9.078;2024-03-08T10:45:50;26.07;;;14.90;;
2299;SDS011;1158;48.750;9.078;2024-03-08T10:48:29;28.10;;;16.43;;
2299;SDS011;1158;48.750;9.078;2024-03-08T10:50:59;29.63;;;16.80;;
2299;SDS011;1158;48.750;9.078;2024-03-08T10:53:28;28.50;;;15.83;;
2299;SDS011;1158;48.750;9.078;2024-03-08T10:55:55;27.50;;;16.33;;
2299;SDS011;1158;48.750;9.078;2024-03-08T10:58:23;32.47;;;17.43;;
2299;SDS011;1158;48.750;9.078;2024-03-08T11:00:52;25.33;;;15.50;;
2299;SDS011;1158;48.750;9.078;2024-03-08T11:06:15;28.03;;;17.10;;
2299;SDS011;1158;48.750;9.078;2024-03-08T11:08:43;26.73;;;15.43;;
2299;SDS011;1158;48.750;9.078;2024-03-08T11:11:23;23.23;;;14.53;;
2299;SDS011;1158;48.750;9.078;2024-03-08T11:13:55;27.70;;;15.20;;
2299;SDS011;1158;48.750;9.078;2024-03-08T11:16:38;23.23;;;14.57;;
2299;SDS011;1158;48.750;9.078;2024-03-08T11:22:01;25.93;;;15.50;;
2299;SDS011;1158;48.750;9.078;2024-03-08T11:24:36;25.00;;;14.93;;
2299;SDS011;1158;48.750;9.078;2024-03-08T11:27:05;25.93;;;15.90;;
2299;SDS011;1158;48.750;9.078;2024-03-08T11:29:36;23.87;;;14.53;;
2299;SDS011;1158;48.750;9.078;2024-03-08T11:32:05;26.23;;;15.50;;
2299;SDS011;1158;48.750;9.078;2024-03-08T11:34:35;28.93;;;14.47;;
2299;SDS011;1158;48.750;9.078;2024-03-08T11:37:05;25.23;;;14.30;;
2299;SDS011;1158;48.750;9.078;2024-03-08T11:39:34;27.73;;;16.60;;
2299;SDS011;1158;48.750;9.078;2024-03-08T11:42:03;29.40;;;15.70;;
2299;SDS011;1158;48.750;9.078;2024-03-08T11:44:30;25.63;;;15.03;;
2299;SDS011;1158;48.750;9.078;2024-03-08T11:46:56;24.87;;;14.50;;
2299;SDS011;1158;48.750;9.078;2024-03-08T11:49:23;30.63;;;14.93;;
2299;SDS011;1158;48.750;9.078;2024-03-08T11:51:51;32.53;;;15.83;;
2299;SDS011;1158;48.750;9.078;2024-03-08T11:54:19;25.23;;;14.50;;
2299;SDS011;1158;48.750;9.078;2024-03-08T11:56:46;22.97;;;14.10;;
2299;SDS011;1158;48.750;9.078;2024-03-08T11:59:13;25.90;;;15.53;;
2299;SDS011;1158;48.750;9.078;2024-03-08T12:01:40;25.50;;;14.03;;
2299;SDS011;1158;48.750;9.078;2024-03-08T12:04:11;22.60;;;13.80;;
2299;SDS011;1158;48.750;9.078;2024-03-08T12:06:39;22.93;;;13.90;;
2299;SDS011;1158;48.750;9.078;2024-03-08T12:09:10;22.40;;;14.10;;
2299;SDS011;1158;48.750;9.078;2024-03-08T12:11:39;24.83;;;15.50;;
2299;SDS011;1158;48.750;9.078;2024-03-08T12:14:06;24.00;;;15.13;;
2299;SDS011;1158;48.750;9.078;2024-03-08T12:16:33;25.80;;;15.80;;
2299;SDS011;1158;48.750;9.078;2024-03-08T12:18:59;28.10;;;16.30;;
2299;SDS011;1158;48.750;9.078;2024-03-08T12:21:30;20.50;;;13.60;;
2299;SDS011;1158;48.750;9.078;2024-03-08T12:24:03;24.03;;;14.40;;
2299;SDS011;1158;48.750;9.078;2024-03-08T12:26:30;24.47;;;14.93;;
2299;SDS011;1158;48.750;9.078;2024-03-08T12:31:45;24.17;;;15.43;;
2299;SDS011;1158;48.750;9.078;2024-03-08T12:34:12;25.27;;;16.00;;
2299;SDS011;1158;48.750;9.078;2024-03-08T12:36:44;25.27;;;15.50;;
2299;SDS011;1158;48.750;9.078;2024-03-08T12:39:13;23.03;;;15.10;;
2299;SDS011;1158;48.750;9.078;2024-03-08T12:41:42;21.40;;;14.67;;
2299;SDS011;1158;48.750;9.078;2024-03-08T12:44:09;22.50;;;14.77;;
2299;SDS011;1158;48.750;9.078;2024-03-08T12:46:38;23.37;;;14.87;;
2299;SDS011;1158;48.750;9.078;2024-03-08T12:49:07;26.57;;;16.47;;
2299;SDS011;1158;48.750;9.078;2024-03-08T12:51:34;25.27;;;14.17;;
2299;SDS011;1158;48.750;9.078;2024-03-08T12:54:02;27.70;;;17.50;;
2299;SDS011;1158;48.750;9.078;2024-03-08T12:56:29;25.77;;;16.80;;
2299;SDS011;1158;48.750;9.078;2024-03-08T12:58:58;24.20;;;14.73;;
2299;SDS011;1158;48.750;9.078;2024-03-08T13:01:25;28.20;;;17.67;;
2299;SDS011;1158;48.750;9.078;2024-03-08T13:03:54;22.10;;;14.77;;
2299;SDS011;1158;48.750;9.078;2024-03-08T13:06:21;25.23;;;16.00;;
2299;SDS011;1158;48.750;9.078;2024-03-08T13:08:49;25.00;;;16.10;;
2299;SDS011;1158;48.750;9.078;2024-03-08T13:11:17;27.20;;;17.47;;
2299;SDS011;1158;48.750;9.078;2024-03-08T13:13:44;24.30;;;16.07;;
2299;SDS011;1158;48.750;9.078;2024-03-08T13:16:11;26.13;;;15.70;;
2299;SDS011;1158;48.750;9.078;2024-03-08T13:18:40;24.40;;;15.80;;
2299;SDS011;1158;48.750;9.078;2024-03-08T13:21:09;28.67;;;16.33;;
2299;SDS011;1158;48.750;9.078;2024-03-08T13:23:38;23.57;;;15.70;;
2299;SDS011;1158;48.750;9.078;2024-03-08T13:26:10;28.90;;;17.60;;
2299;SDS011;1158;48.750;9.078;2024-03-08T13:28:40;28.30;;;17.50;;
2299;SDS011;1158;48.750;9.078;2024-03-08T13:31:07;28.30;;;17.13;;
2299;SDS011;1158;48.750;9.078;2024-03-08T13:33:35;24.40;;;16.27;;
2299;SDS011;1158;48.750;9.078;2024-03-08T13:36:04;25.77;;;16.10;;
2299;SDS011;1158;48.750;9.078;2024-03-08T13:38:40;26.20;;;15.90;;
2299;SDS011;1158;48.750;9.078;2024-03-08T13:41:08;25.83;;;15.80;;
2299;SDS011;1158;48.750;9.078;2024-03-08T13:43:36;26.30;;;15.57;;
2299;SDS011;1158;48.750;9.078;2024-03-08T13:46:03;28.73;;;16.70;;
2299;SDS011;1158;48.750;9.078;2024-03-08T13:48:30;26.90;;;16.93;;
2299;SDS011;1158;48.750;9.078;2024-03-08T13:50:57;25.90;;;16.23;;
2299;SDS011;1158;48.750;9.078;2024-03-08T13:53:25;28.27;;;17.30;;
2299;SDS011;1158;48.750;9.078;2024-03-08T13:55:53;24.17;;;15.90;;
2299;SDS011;1158;48.750;9.078;2024-03-08T13:58:21;26.47;;;15.57;;
2299;SDS011;1158;48.750;9.078;2024-03-08T14:00:48;25.07;;;15.53;;
2299;SDS011;1158;48.750;9.078;2024-03-08T14:03:16;25.40;;;17.07;;
2299;SDS011;1158;48.750;9.078;2024-03-08T14:05:43;23.67;;;15.40;;
2299;SDS011;1158;48.750;9.078;2024-03-08T14:08:11;30.20;;;18.07;;
2299;SDS011;1158;48.750;9.078;2024-03-08T14:10:39;26.43;;;15.80;;
2299;SDS011;1158;48.750;9.078;2024-03-08T14:13:08;23.20;;;14.30;;
2299;SDS011;1158;48.750;9.078;2024-03-08T14:15:36;28.03;;;17.33;;
2299;SDS011;1158;48.750;9.078;2024-03-08T14:18:07;24.90;;;16.17;;
2299;SDS011;1158;48.750;9.078;2024-03-08T14:20:33;26.40;;;16.63;;
2299;SDS011;1158;48.750;9.078;2024-03-08T14:23:00;26.03;;;15.90;;
2299;SDS011;1158;48.750;9.078;2024-03-08T14:25:28;27.83;;;16.30;;
2299;SDS011;1158;48.750;9.078;2024-03-08T14:27:55;26.20;;;16.13;;
2299;SDS011;1158;48.750;9.078;2024-03-08T14:30:24;28.30;;;16.30;;
2299;SDS011;1158;48.750;9.078;2024-03-08T14:33:02;23.80;;;15.63;;
2299;SDS011;1158;48.750;9.078;2024-03-08T14:35:30;21.97;;;14.50;;
2299;SDS011;1158;48.750;9.078;2024-03-08T14:37:57;26.87;;;16.77;;
2299;SDS011;1158;48.750;9.078;2024-03-08T14:40:25;26.10;;;15.97;;
2299;SDS011;1158;48.750;9.078;2024-03-08T14:42:52;21.87;;;15.20;;
2299;SDS011;1158;48.750;9.078;2024-03-08T14:45:19;23.70;;;16.17;;
2299;SDS011;1158;48.750;9.078;2024-03-08T14:47:47;25.23;;;15.87;;
2299;SDS011;1158;48.750;9.078;2024-03-08T14:50:15;22.00;;;15.93;;
2299;SDS011;1158;48.750;9.078;2024-03-08T14:52:43;23.00;;;16.37;;
2299;SDS011;1158;48.750;9.078;2024-03-08T14:55:10;24.37;;;15.43;;
2299;SDS011;1158;48.750;9.078;2024-03-08T14:57:39;23.40;;;15.40;;
2299;SDS011;1158;48.750;9.078;2024-03-08T15:00:06;23.87;;;15.50;;